sensor_id;sensor_type;location;lat;lon;timestamp;P1;durP1;ratioP1;P2;durP2;ratioP2
23046;SDS011;11691;51.462;6.902;2023-05-16T00:00:30;6.47;;;4.63;;
23046;SDS011;11691;51.462;6.902;2023-05-16T00:02:59;6.00;;;4.22;;
23046;SDS011;11691;51.462;6.902;2023-05-16T00:05:25;5.80;;;4.00;;
23046;SDS011;11691;51.462;6.902;2023-05-16T00:07:51;6.30;;;3.60;;
23046;SDS011;11691;51.462;6.902;2023-05-16T00:10:17;5.68;;;4.13;;
23046;SDS011;11691;51.462;6.902;2023-05-16T00:12:43;5.65;;;3.80;;
23046;SDS011;11691;51.462;6.902;2023-05-16T00:15:11;8.07;;;3.88;;
23046;SDS011;11691;51.462;6.902;2023-05-16T00:17:38;6.13;;;3.63;;
23046;SDS011;11691;51.462;6.902;2023-05-16T00:20:05;6.50;;;3.67;;
23046;SDS011;11691;51.462;6.902;2023-05-16T00:22:36;13.40;;;7.85;;
23046;SDS011;11691;51.462;6.902;2023-05-16T00:25:02;18.20;;;12.00;;
23046;SDS011;11691;51.462;6.902;2023-05-16T00:27:28;15.40;;;10.93;;
23046;SDS011;11691;51.462;6.902;2023-05-16T00:29:54;7.03;;;4.22;;
23046;SDS011;11691;51.462;6.902;2023-05-16T00:32:20;4.32;;;2.50;;
23046;SDS011;11691;51.462;6.902;2023-05-16T00:34:46;6.53;;;2.22;;
23046;SDS011;11691;51.462;6.902;2023-05-16T00:37:12;10.13;;;3.80;;
23046;SDS011;11691;51.462;6.902;2023-05-16T00:39:38;4.00;;;2.40;;
23046;SDS011;11691;51.462;6.902;2023-05-16T00:42:04;5.82;;;2.47;;
23046;SDS011;11691;51.462;6.902;2023-05-16T00:44:30;3.60;;;2.05;;
23046;SDS011;11691;51.462;6.902;2023-05-16T00:46:57;3.97;;;2.58;;
23046;SDS011;11691;51.462;6.902;2023-05-16T00:49:24;3.20;;;2.00;;
23046;SDS011;11691;51.462;6.902;2023-05-16T00:51:50;5.10;;;2.05;;
23046;SDS011;11691;51.462;6.902;2023-05-16T00:54:16;5.38;;;2.17;;
23046;SDS011;11691;51.462;6.902;2023-05-16T00:56:43;3.80;;;2.13;;
23046;SDS011;11691;51.462;6.902;2023-05-16T00:59:09;5.53;;;2.25;;
23046;SDS011;11691;51.462;6.902;2023-05-16T01:01:35;3.40;;;1.85;;
23046;SDS011;11691;51.462;6.902;2023-05-16T01:04:01;3.53;;;1.85;;
23046;SDS011;11691;51.462;6.902;2023-05-16T01:06:27;4.28;;;2.15;;
23046;SDS011;11691;51.462;6.902;2023-05-16T01:08:53;4.97;;;2.00;;
23046;SDS011;11691;51.462;6.902;2023-05-16T01:11:27;3.53;;;2.00;;
23046;SDS011;11691;51.462;6.902;2023-05-16T01:16:38;3.35;;;1.98;;
23046;SDS011;11691;51.462;6.902;2023-05-16T01:19:19;7.32;;;2.10;;
23046;SDS011;11691;51.462;6.902;2023-05-16T01:24:46;7.88;;;2.13;;
23046;SDS011;11691;51.462;6.902;2023-05-16T01:27:26;8.68;;;2.30;;
23046;SDS011;11691;51.462;6.902;2023-05-16T01:29:55;8.85;;;2.28;;
23046;SDS011;11691;51.462;6.902;2023-05-16T01:32:20;8.93;;;2.13;;
23046;SDS011;11691;51.462;6.902;2023-05-16T01:34:47;9.77;;;2.30;;
23046;SDS011;11691;51.462;6.902;2023-05-16T01:37:15;9.57;;;2.92;;
23046;SDS011;11691;51.462;6.902;2023-05-16T01:39:51;8.40;;;2.80;;
23046;SDS011;11691;51.462;6.902;2023-05-16T01:42:18;8.75;;;2.55;;
23046;SDS011;11691;51.462;6.902;2023-05-16T01:47:31;11.23;;;2.63;;
23046;SDS011;11691;51.462;6.902;2023-05-16T01:55:14;8.20;;;2.55;;
23046;SDS011;11691;51.462;6.902;2023-05-16T01:57:41;7.82;;;2.22;;
23046;SDS011;11691;51.462;6.902;2023-05-16T02:00:08;7.80;;;2.28;;
23046;SDS011;11691;51.462;6.902;2023-05-16T02:02:34;9.73;;;2.55;;
23046;SDS011;11691;51.462;6.902;2023-05-16T02:05:00;8.40;;;1.93;;
23046;SDS011;11691;51.462;6.902;2023-05-16T02:07:26;14.98;;;2.97;;
23046;SDS011;11691;51.462;6.902;2023-05-16T02:09:53;7.18;;;2.58;;
23046;SDS011;11691;51.462;6.902;2023-05-16T02:12:19;10.88;;;2.78;;
23046;SDS011;11691;51.462;6.902;2023-05-16T02:14:45;9.02;;;2.92;;
23046;SDS011;11691;51.462;6.902;2023-05-16T02:17:11;16.85;;;3.13;;
23046;SDS011;11691;51.462;6.902;2023-05-16T02:19:37;10.80;;;2.92;;
23046;SDS011;11691;51.462;6.902;2023-05-16T02:22:03;11.00;;;2.50;;
23046;SDS011;11691;51.462;6.902;2023-05-16T02:24:29;10.63;;;2.63;;
23046;SDS011;11691;51.462;6.902;2023-05-16T02:26:54;10.88;;;3.13;;
23046;SDS011;11691;51.462;6.902;2023-05-16T02:29:20;12.50;;;3.05;;
23046;SDS011;11691;51.462;6.902;2023-05-16T02:31:46;11.60;;;3.23;;
23046;SDS011;11691;51.462;6.902;2023-05-16T02:34:13;12.82;;;3.00;;
23046;SDS011;11691;51.462;6.902;2023-05-16T02:36:39;14.45;;;2.92;;
23046;SDS011;11691;51.462;6.902;2023-05-16T02:39:05;12.85;;;2.60;;
23046;SDS011;11691;51.462;6.902;2023-05-16T02:41:33;11.13;;;2.80;;
23046;SDS011;11691;51.462;6.902;2023-05-16T02:43:59;13.70;;;2.83;;
23046;SDS011;11691;51.462;6.902;2023-05-16T02:46:28;13.07;;;3.55;;
23046;SDS011;11691;51.462;6.902;2023-05-16T02:48:55;17.00;;;3.08;;
23046;SDS011;11691;51.462;6.902;2023-05-16T02:51:22;14.53;;;3.13;;
23046;SDS011;11691;51.462;6.902;2023-05-16T02:53:49;9.80;;;2.33;;
23046;SDS011;11691;51.462;6.902;2023-05-16T02:56:16;13.18;;;2.80;;
23046;SDS011;11691;51.462;6.902;2023-05-16T02:58:42;8.77;;;2.40;;
23046;SDS011;11691;51.462;6.902;2023-05-16T03:01:09;17.50;;;3.27;;
23046;SDS011;11691;51.462;6.902;2023-05-16T03:03:36;16.00;;;3.20;;
23046;SDS011;11691;51.462;6.902;2023-05-16T03:06:02;18.23;;;3.47;;
23046;SDS011;11691;51.462;6.902;2023-05-16T03:08:28;13.57;;;3.23;;
23046;SDS011;11691;51.462;6.902;2023-05-16T03:10:53;10.93;;;2.70;;
23046;SDS011;11691;51.462;6.902;2023-05-16T03:13:19;16.87;;;3.23;;
23046;SDS011;11691;51.462;6.902;2023-05-16T03:15:46;17.50;;;2.87;;
23046;SDS011;11691;51.462;6.902;2023-05-16T03:18:12;20.87;;;2.43;;
23046;SDS011;11691;51.462;6.902;2023-05-16T03:20:38;17.60;;;2.60;;
23046;SDS011;11691;51.462;6.902;2023-05-16T03:23:04;14.40;;;2.80;;
23046;SDS011;11691;51.462;6.902;2023-05-16T03:25:32;13.73;;;2.97;;
23046;SDS011;11691;51.462;6.902;2023-05-16T03:27:58;13.53;;;2.90;;
23046;SDS011;11691;51.462;6.902;2023-05-16T03:30:24;14.43;;;2.60;;
23046;SDS011;11691;51.462;6.902;2023-05-16T03:32:51;11.40;;;2.43;;
23046;SDS011;11691;51.462;6.902;2023-05-16T03:35:16;15.30;;;2.60;;
23046;SDS011;11691;51.462;6.902;2023-05-16T03:37:42;15.20;;;2.97;;
23046;SDS011;11691;51.462;6.902;2023-05-16T03:40:08;19.83;;;2.90;;
23046;SDS011;11691;51.462;6.902;2023-05-16T03:42:35;9.73;;;2.77;;
23046;SDS011;11691;51.462;6.902;2023-05-16T03:45:01;11.03;;;2.27;;
23046;SDS011;11691;51.462;6.902;2023-05-16T03:47:27;17.80;;;2.93;;
23046;SDS011;11691;51.462;6.902;2023-05-16T03:49:55;8.77;;;2.60;;
23046;SDS011;11691;51.462;6.902;2023-05-16T03:52:21;14.63;;;2.40;;
23046;SDS011;11691;51.462;6.902;2023-05-16T03:54:47;13.73;;;3.17;;
23046;SDS011;11691;51.462;6.902;2023-05-16T03:57:14;14.63;;;2.43;;
23046;SDS011;11691;51.462;6.902;2023-05-16T03:59:40;13.93;;;2.80;;
23046;SDS011;11691;51.462;6.902;2023-05-16T04:02:06;17.33;;;2.80;;
23046;SDS011;11691;51.462;6.902;2023-05-16T04:04:32;11.47;;;2.53;;
23046;SDS011;11691;51.462;6.902;2023-05-16T04:06:58;10.77;;;2.60;;
23046;SDS011;11691;51.462;6.902;2023-05-16T04:09:24;12.77;;;2.20;;
23046;SDS011;11691;51.462;6.902;2023-05-16T04:11:50;12.00;;;2.83;;
23046;SDS011;11691;51.462;6.902;2023-05-16T04:14:16;12.47;;;2.33;;
23046;SDS011;11691;51.462;6.902;2023-05-16T04:16:41;8.03;;;1.87;;
23046;SDS011;11691;51.462;6.902;2023-05-16T04:19:07;12.23;;;2.47;;
23046;SDS011;11691;51.462;6.902;2023-05-16T04:21:33;9.87;;;1.93;;
23046;SDS011;11691;51.462;6.902;2023-05-16T04:24:00;16.30;;;2.67;;
23046;SDS011;11691;51.462;6.902;2023-05-16T04:26:26;9.67;;;2.47;;
23046;SDS011;11691;51.462;6.902;2023-05-16T04:28:52;9.63;;;2.73;;
23046;SDS011;11691;51.462;6.902;2023-05-16T04:31:18;11.43;;;2.27;;
23046;SDS011;11691;51.462;6.902;2023-05-16T04:33:44;13.30;;;2.10;;
23046;SDS011;11691;51.462;6.902;2023-05-16T04:36:10;13.73;;;2.20;;
23046;SDS011;11691;51.462;6.902;2023-05-16T04:38:36;10.63;;;2.20;;
23046;SDS011;11691;51.462;6.902;2023-05-16T04:41:02;8.20;;;1.57;;
23046;SDS011;11691;51.462;6.902;2023-05-16T04:43:28;11.33;;;2.03;;
23046;SDS011;11691;51.462;6.902;2023-05-16T04:45:54;13.83;;;2.30;;
23046;SDS011;11691;51.462;6.902;2023-05-16T04:48:22;10.27;;;2.37;;
23046;SDS011;11691;51.462;6.902;2023-05-16T04:50:48;10.20;;;2.37;;
23046;SDS011;11691;51.462;6.902;2023-05-16T04:53:15;10.20;;;1.90;;
23046;SDS011;11691;51.462;6.902;2023-05-16T04:55:41;12.77;;;2.07;;
23046;SDS011;11691;51.462;6.902;2023-05-16T04:58:07;13.73;;;2.60;;
23046;SDS011;11691;51.462;6.902;2023-05-16T05:00:33;10.67;;;1.97;;
23046;SDS011;11691;51.462;6.902;2023-05-16T05:02:59;9.87;;;2.17;;
23046;SDS011;11691;51.462;6.902;2023-05-16T05:05:25;10.23;;;2.20;;
23046;SDS011;11691;51.462;6.902;2023-05-16T05:07:51;11.37;;;2.03;;
23046;SDS011;11691;51.462;6.902;2023-05-16T05:10:18;10.50;;;2.47;;
23046;SDS011;11691;51.462;6.902;2023-05-16T05:12:44;11.27;;;2.73;;
23046;SDS011;11691;51.462;6.902;2023-05-16T05:15:10;14.07;;;1.93;;
23046;SDS011;11691;51.462;6.902;2023-05-16T05:17:37;18.77;;;2.70;;
23046;SDS011;11691;51.462;6.902;2023-05-16T05:20:03;19.60;;;2.00;;
23046;SDS011;11691;51.462;6.902;2023-05-16T05:22:34;13.50;;;2.77;;
23046;SDS011;11691;51.462;6.902;2023-05-16T05:25:00;13.50;;;2.40;;
23046;SDS011;11691;51.462;6.902;2023-05-16T05:27:26;13.63;;;2.23;;
23046;SDS011;11691;51.462;6.902;2023-05-16T05:29:53;11.63;;;1.93;;
23046;SDS011;11691;51.462;6.902;2023-05-16T05:32:19;9.83;;;2.00;;
23046;SDS011;11691;51.462;6.902;2023-05-16T05:34:45;11.20;;;2.67;;
23046;SDS011;11691;51.462;6.902;2023-05-16T05:37:11;11.40;;;1.77;;
23046;SDS011;11691;51.462;6.902;2023-05-16T05:39:37;7.67;;;2.00;;
23046;SDS011;11691;51.462;6.902;2023-05-16T05:42:03;8.40;;;2.30;;
23046;SDS011;11691;51.462;6.902;2023-05-16T05:44:29;8.93;;;2.00;;
23046;SDS011;11691;51.462;6.902;2023-05-16T05:46:55;12.23;;;2.57;;
23046;SDS011;11691;51.462;6.902;2023-05-16T05:49:25;6.67;;;2.03;;
23046;SDS011;11691;51.462;6.902;2023-05-16T05:51:51;8.70;;;1.90;;
23046;SDS011;11691;51.462;6.902;2023-05-16T05:54:18;16.10;;;2.97;;
23046;SDS011;11691;51.462;6.902;2023-05-16T05:56:44;13.83;;;2.57;;
23046;SDS011;11691;51.462;6.902;2023-05-16T05:59:10;7.97;;;1.70;;
23046;SDS011;11691;51.462;6.902;2023-05-16T06:01:36;7.77;;;1.80;;
23046;SDS011;11691;51.462;6.902;2023-05-16T06:04:02;11.27;;;2.30;;
23046;SDS011;11691;51.462;6.902;2023-05-16T06:06:28;12.50;;;2.07;;
23046;SDS011;11691;51.462;6.902;2023-05-16T06:08:54;9.23;;;2.57;;
23046;SDS011;11691;51.462;6.902;2023-05-16T06:11:20;8.03;;;1.87;;
23046;SDS011;11691;51.462;6.902;2023-05-16T06:13:46;8.47;;;1.80;;
23046;SDS011;11691;51.462;6.902;2023-05-16T06:16:12;10.52;;;2.47;;
23046;SDS011;11691;51.462;6.902;2023-05-16T06:18:38;7.65;;;2.03;;
23046;SDS011;11691;51.462;6.902;2023-05-16T06:21:04;8.30;;;2.17;;
23046;SDS011;11691;51.462;6.902;2023-05-16T06:23:35;10.38;;;1.83;;
23046;SDS011;11691;51.462;6.902;2023-05-16T06:26:01;10.40;;;1.90;;
23046;SDS011;11691;51.462;6.902;2023-05-16T06:28:27;8.25;;;1.83;;
23046;SDS011;11691;51.462;6.902;2023-05-16T06:30:53;19.25;;;2.38;;
23046;SDS011;11691;51.462;6.902;2023-05-16T06:33:19;12.85;;;1.98;;
23046;SDS011;11691;51.462;6.902;2023-05-16T06:35:45;14.95;;;1.90;;
23046;SDS011;11691;51.462;6.902;2023-05-16T06:38:12;8.85;;;1.88;;
23046;SDS011;11691;51.462;6.902;2023-05-16T06:40:38;13.77;;;2.42;;
23046;SDS011;11691;51.462;6.902;2023-05-16T06:43:05;13.75;;;1.95;;
23046;SDS011;11691;51.462;6.902;2023-05-16T06:45:31;13.35;;;2.50;;
23046;SDS011;11691;51.462;6.902;2023-05-16T06:47:57;11.32;;;2.20;;
23046;SDS011;11691;51.462;6.902;2023-05-16T06:50:23;12.00;;;2.20;;
23046;SDS011;11691;51.462;6.902;2023-05-16T06:52:49;10.52;;;2.20;;
23046;SDS011;11691;51.462;6.902;2023-05-16T06:55:15;13.55;;;1.45;;
23046;SDS011;11691;51.462;6.902;2023-05-16T06:57:41;12.00;;;1.92;;
23046;SDS011;11691;51.462;6.902;2023-05-16T07:00:07;9.32;;;1.80;;
23046;SDS011;11691;51.462;6.902;2023-05-16T07:02:33;12.10;;;1.60;;
23046;SDS011;11691;51.462;6.902;2023-05-16T07:04:59;13.07;;;1.77;;
23046;SDS011;11691;51.462;6.902;2023-05-16T07:07:25;9.48;;;2.25;;
23046;SDS011;11691;51.462;6.902;2023-05-16T07:09:51;9.52;;;1.73;;
23046;SDS011;11691;51.462;6.902;2023-05-16T07:12:17;7.05;;;1.73;;
23046;SDS011;11691;51.462;6.902;2023-05-16T07:14:43;11.05;;;2.15;;
23046;SDS011;11691;51.462;6.902;2023-05-16T07:17:10;8.38;;;1.77;;
23046;SDS011;11691;51.462;6.902;2023-05-16T07:19:36;11.27;;;1.33;;
23046;SDS011;11691;51.462;6.902;2023-05-16T07:22:02;8.68;;;1.27;;
23046;SDS011;11691;51.462;6.902;2023-05-16T07:24:28;6.63;;;1.63;;
23046;SDS011;11691;51.462;6.902;2023-05-16T07:26:54;5.95;;;1.05;;
23046;SDS011;11691;51.462;6.902;2023-05-16T07:29:20;9.48;;;1.23;;
23046;SDS011;11691;51.462;6.902;2023-05-16T07:31:46;4.82;;;1.35;;
23046;SDS011;11691;51.462;6.902;2023-05-16T07:34:12;6.22;;;1.08;;
23046;SDS011;11691;51.462;6.902;2023-05-16T07:36:38;7.85;;;1.20;;
23046;SDS011;11691;51.462;6.902;2023-05-16T07:39:04;7.50;;;1.10;;
23046;SDS011;11691;51.462;6.902;2023-05-16T07:41:30;7.00;;;1.23;;
23046;SDS011;11691;51.462;6.902;2023-05-16T07:43:56;7.38;;;1.42;;
23046;SDS011;11691;51.462;6.902;2023-05-16T07:46:22;4.70;;;1.55;;
23046;SDS011;11691;51.462;6.902;2023-05-16T07:48:48;4.65;;;0.80;;
23046;SDS011;11691;51.462;6.902;2023-05-16T07:51:14;4.45;;;1.20;;
23046;SDS011;11691;51.462;6.902;2023-05-16T07:53:40;6.07;;;1.33;;
23046;SDS011;11691;51.462;6.902;2023-05-16T07:56:06;6.45;;;1.40;;
23046;SDS011;11691;51.462;6.902;2023-05-16T07:58:32;5.93;;;1.05;;
23046;SDS011;11691;51.462;6.902;2023-05-16T08:00:58;6.03;;;1.25;;
23046;SDS011;11691;51.462;6.902;2023-05-16T08:03:25;8.43;;;1.35;;
23046;SDS011;11691;51.462;6.902;2023-05-16T08:05:51;7.68;;;1.40;;
23046;SDS011;11691;51.462;6.902;2023-05-16T08:08:17;4.05;;;1.08;;
23046;SDS011;11691;51.462;6.902;2023-05-16T08:10:43;3.83;;;1.10;;
23046;SDS011;11691;51.462;6.902;2023-05-16T08:13:09;4.10;;;1.45;;
23046;SDS011;11691;51.462;6.902;2023-05-16T08:15:35;7.18;;;1.50;;
23046;SDS011;11691;51.462;6.902;2023-05-16T08:18:01;7.15;;;1.30;;
23046;SDS011;11691;51.462;6.902;2023-05-16T08:20:27;4.75;;;1.13;;
23046;SDS011;11691;51.462;6.902;2023-05-16T08:22:54;6.90;;;1.20;;
23046;SDS011;11691;51.462;6.902;2023-05-16T08:25:20;6.00;;;0.95;;
23046;SDS011;11691;51.462;6.902;2023-05-16T08:27:47;7.88;;;1.02;;
23046;SDS011;11691;51.462;6.902;2023-05-16T08:30:14;8.38;;;1.17;;
23046;SDS011;11691;51.462;6.902;2023-05-16T08:32:41;7.15;;;1.23;;
23046;SDS011;11691;51.462;6.902;2023-05-16T08:35:07;5.95;;;1.17;;
23046;SDS011;11691;51.462;6.902;2023-05-16T08:37:35;5.57;;;1.23;;
23046;SDS011;11691;51.462;6.902;2023-05-16T08:40:01;10.75;;;1.40;;
23046;SDS011;11691;51.462;6.902;2023-05-16T08:42:29;4.72;;;1.02;;
23046;SDS011;11691;51.462;6.902;2023-05-16T08:44:56;5.60;;;1.17;;
23046;SDS011;11691;51.462;6.902;2023-05-16T08:47:22;7.32;;;0.90;;
23046;SDS011;11691;51.462;6.902;2023-05-16T08:49:50;1.67;;;0.73;;
23046;SDS011;11691;51.462;6.902;2023-05-16T08:52:20;6.45;;;0.95;;
23046;SDS011;11691;51.462;6.902;2023-05-16T08:54:46;4.90;;;1.10;;
23046;SDS011;11691;51.462;6.902;2023-05-16T08:57:12;5.53;;;0.80;;
23046;SDS011;11691;51.462;6.902;2023-05-16T08:59:39;4.70;;;0.80;;
23046;SDS011;11691;51.462;6.902;2023-05-16T09:02:05;3.00;;;0.93;;
23046;SDS011;11691;51.462;6.902;2023-05-16T09:04:31;5.25;;;1.17;;
23046;SDS011;11691;51.462;6.902;2023-05-16T09:06:58;3.60;;;1.02;;
23046;SDS011;11691;51.462;6.902;2023-05-16T09:09:24;4.57;;;0.90;;
23046;SDS011;11691;51.462;6.902;2023-05-16T09:11:49;5.28;;;1.13;;
23046;SDS011;11691;51.462;6.902;2023-05-16T09:14:15;5.63;;;1.20;;
23046;SDS011;11691;51.462;6.902;2023-05-16T09:16:42;2.65;;;0.95;;
23046;SDS011;11691;51.462;6.902;2023-05-16T09:19:11;2.85;;;1.00;;
23046;SDS011;11691;51.462;6.902;2023-05-16T09:21:37;2.95;;;0.88;;
23046;SDS011;11691;51.462;6.902;2023-05-16T09:24:08;4.57;;;0.90;;
23046;SDS011;11691;51.462;6.902;2023-05-16T09:26:37;2.83;;;0.93;;
23046;SDS011;11691;51.462;6.902;2023-05-16T09:29:10;3.08;;;1.10;;
23046;SDS011;11691;51.462;6.902;2023-05-16T09:31:36;2.80;;;0.93;;
23046;SDS011;11691;51.462;6.902;2023-05-16T09:34:08;4.18;;;0.95;;
23046;SDS011;11691;51.462;6.902;2023-05-16T09:36:36;4.45;;;0.80;;
23046;SDS011;11691;51.462;6.902;2023-05-16T09:39:02;4.35;;;0.93;;
23046;SDS011;11691;51.462;6.902;2023-05-16T09:41:32;6.32;;;1.17;;
23046;SDS011;11691;51.462;6.902;2023-05-16T09:43:59;6.70;;;1.08;;
23046;SDS011;11691;51.462;6.902;2023-05-16T09:46:28;5.05;;;0.95;;
23046;SDS011;11691;51.462;6.902;2023-05-16T09:48:54;4.55;;;1.00;;
23046;SDS011;11691;51.462;6.902;2023-05-16T09:51:20;4.63;;;1.23;;
23046;SDS011;11691;51.462;6.902;2023-05-16T09:53:47;4.50;;;0.80;;
23046;SDS011;11691;51.462;6.902;2023-05-16T09:56:14;7.20;;;1.15;;
23046;SDS011;11691;51.462;6.902;2023-05-16T09:58:41;5.50;;;1.38;;
23046;SDS011;11691;51.462;6.902;2023-05-16T10:01:09;4.65;;;1.15;;
23046;SDS011;11691;51.462;6.902;2023-05-16T10:03:36;4.97;;;0.90;;
23046;SDS011;11691;51.462;6.902;2023-05-16T10:06:03;8.70;;;1.33;;
23046;SDS011;11691;51.462;6.902;2023-05-16T10:08:30;7.07;;;1.05;;
23046;SDS011;11691;51.462;6.902;2023-05-16T10:11:00;5.63;;;1.17;;
23046;SDS011;11691;51.462;6.902;2023-05-16T10:13:27;3.55;;;1.15;;
23046;SDS011;11691;51.462;6.902;2023-05-16T10:15:57;3.08;;;1.00;;
23046;SDS011;11691;51.462;6.902;2023-05-16T10:18:27;4.40;;;0.90;;
23046;SDS011;11691;51.462;6.902;2023-05-16T10:20:54;6.15;;;1.13;;
23046;SDS011;11691;51.462;6.902;2023-05-16T10:23:21;4.70;;;0.88;;
23046;SDS011;11691;51.462;6.902;2023-05-16T10:25:49;3.67;;;1.00;;
23046;SDS011;11691;51.462;6.902;2023-05-16T10:28:16;8.35;;;1.20;;
23046;SDS011;11691;51.462;6.902;2023-05-16T10:30:43;4.00;;;0.90;;
23046;SDS011;11691;51.462;6.902;2023-05-16T10:33:13;5.50;;;1.20;;
23046;SDS011;11691;51.462;6.902;2023-05-16T10:35:40;8.45;;;1.30;;
23046;SDS011;11691;51.462;6.902;2023-05-16T10:38:07;5.10;;;1.30;;
23046;SDS011;11691;51.462;6.902;2023-05-16T10:40:34;4.03;;;1.10;;
23046;SDS011;11691;51.462;6.902;2023-05-16T10:43:01;7.65;;;1.50;;
23046;SDS011;11691;51.462;6.902;2023-05-16T10:45:28;4.97;;;1.05;;
23046;SDS011;11691;51.462;6.902;2023-05-16T10:47:55;6.72;;;1.00;;
23046;SDS011;11691;51.462;6.902;2023-05-16T10:50:31;2.97;;;1.00;;
23046;SDS011;11691;51.462;6.902;2023-05-16T10:58:21;4.07;;;0.80;;
23046;SDS011;11691;51.462;6.902;2023-05-16T11:00:48;1.92;;;0.70;;
23046;SDS011;11691;51.462;6.902;2023-05-16T11:03:23;3.13;;;0.75;;
23046;SDS011;11691;51.462;6.902;2023-05-16T11:05:50;4.70;;;1.05;;
23046;SDS011;11691;51.462;6.902;2023-05-16T11:08:18;2.78;;;0.80;;
23046;SDS011;11691;51.462;6.902;2023-05-16T11:10:44;3.47;;;1.00;;
23046;SDS011;11691;51.462;6.902;2023-05-16T11:13:10;3.05;;;0.88;;
23046;SDS011;11691;51.462;6.902;2023-05-16T11:15:36;4.60;;;1.08;;
23046;SDS011;11691;51.462;6.902;2023-05-16T11:18:05;2.78;;;0.80;;
23046;SDS011;11691;51.462;6.902;2023-05-16T11:20:33;2.47;;;0.68;;
23046;SDS011;11691;51.462;6.902;2023-05-16T11:23:42;3.05;;;0.57;;
23046;SDS011;11691;51.462;6.902;2023-05-16T11:25:53;2.28;;;0.95;;
23046;SDS011;11691;51.462;6.902;2023-05-16T11:28:19;2.47;;;0.63;;
23046;SDS011;11691;51.462;6.902;2023-05-16T11:30:54;4.00;;;0.55;;
23046;SDS011;11691;51.462;6.902;2023-05-16T11:33:22;3.10;;;0.80;;
23046;SDS011;11691;51.462;6.902;2023-05-16T11:38:30;1.35;;;0.50;;
23046;SDS011;11691;51.462;6.902;2023-05-16T11:41:00;2.55;;;0.63;;
23046;SDS011;11691;51.462;6.902;2023-05-16T11:43:35;3.60;;;0.75;;
23046;SDS011;11691;51.462;6.902;2023-05-16T11:46:01;2.15;;;0.80;;
23046;SDS011;11691;51.462;6.902;2023-05-16T11:48:27;2.00;;;0.70;;
23046;SDS011;11691;51.462;6.902;2023-05-16T11:50:54;1.92;;;0.43;;
23046;SDS011;11691;51.462;6.902;2023-05-16T11:53:20;2.45;;;0.55;;
23046;SDS011;11691;51.462;6.902;2023-05-16T11:55:46;1.10;;;0.65;;
23046;SDS011;11691;51.462;6.902;2023-05-16T11:58:16;3.53;;;0.50;;
23046;SDS011;11691;51.462;6.902;2023-05-16T12:00:49;2.65;;;0.57;;
23046;SDS011;11691;51.462;6.902;2023-05-16T12:03:16;1.83;;;0.70;;
23046;SDS011;11691;51.462;6.902;2023-05-16T12:05:52;2.67;;;0.68;;
23046;SDS011;11691;51.462;6.902;2023-05-16T12:08:19;1.77;;;0.60;;
23046;SDS011;11691;51.462;6.902;2023-05-16T12:10:47;2.00;;;0.70;;
23046;SDS011;11691;51.462;6.902;2023-05-16T12:13:14;5.07;;;0.60;;
23046;SDS011;11691;51.462;6.902;2023-05-16T12:15:41;2.28;;;0.77;;
23046;SDS011;11691;51.462;6.902;2023-05-16T12:18:07;1.42;;;0.50;;
23046;SDS011;11691;51.462;6.902;2023-05-16T12:20:33;3.13;;;0.70;;
23046;SDS011;11691;51.462;6.902;2023-05-16T12:22:59;4.38;;;0.90;;
23046;SDS011;11691;51.462;6.902;2023-05-16T12:27:56;3.15;;;0.88;;
23046;SDS011;11691;51.462;6.902;2023-05-16T12:30:22;1.50;;;0.50;;
23046;SDS011;11691;51.462;6.902;2023-05-16T12:32:58;1.95;;;0.50;;
23046;SDS011;11691;51.462;6.902;2023-05-16T12:35:28;2.92;;;0.77;;
23046;SDS011;11691;51.462;6.902;2023-05-16T12:37:55;2.95;;;0.70;;
23046;SDS011;11691;51.462;6.902;2023-05-16T12:40:21;0.90;;;0.40;;
23046;SDS011;11691;51.462;6.902;2023-05-16T12:42:50;2.47;;;0.85;;
23046;SDS011;11691;51.462;6.902;2023-05-16T12:45:18;1.70;;;0.60;;
23046;SDS011;11691;51.462;6.902;2023-05-16T12:47:44;2.42;;;0.70;;
23046;SDS011;11691;51.462;6.902;2023-05-16T12:50:11;3.85;;;0.90;;
23046;SDS011;11691;51.462;6.902;2023-05-16T12:52:48;2.33;;;0.55;;
23046;SDS011;11691;51.462;6.902;2023-05-16T12:55:18;2.53;;;0.73;;
23046;SDS011;11691;51.462;6.902;2023-05-16T12:57:45;2.95;;;0.70;;
23046;SDS011;11691;51.462;6.902;2023-05-16T13:00:12;3.25;;;0.82;;
23046;SDS011;11691;51.462;6.902;2023-05-16T13:02:39;3.50;;;0.77;;
23046;SDS011;11691;51.462;6.902;2023-05-16T13:05:05;3.85;;;0.85;;
23046;SDS011;11691;51.462;6.902;2023-05-16T13:07:32;1.20;;;0.52;;
23046;SDS011;11691;51.462;6.902;2023-05-16T13:09:58;1.88;;;0.75;;
23046;SDS011;11691;51.462;6.902;2023-05-16T13:12:24;1.98;;;0.80;;
23046;SDS011;11691;51.462;6.902;2023-05-16T13:14:54;2.58;;;0.50;;
23046;SDS011;11691;51.462;6.902;2023-05-16T13:17:20;6.20;;;0.90;;
23046;SDS011;11691;51.462;6.902;2023-05-16T13:19:47;3.88;;;0.85;;
23046;SDS011;11691;51.462;6.902;2023-05-16T13:22:14;1.83;;;0.52;;
23046;SDS011;11691;51.462;6.902;2023-05-16T13:24:40;3.65;;;0.98;;
23046;SDS011;11691;51.462;6.902;2023-05-16T13:27:06;3.70;;;0.55;;
23046;SDS011;11691;51.462;6.902;2023-05-16T13:29:32;1.67;;;0.80;;
23046;SDS011;11691;51.462;6.902;2023-05-16T13:31:58;4.80;;;1.00;;
23046;SDS011;11691;51.462;6.902;2023-05-16T13:34:23;3.58;;;0.77;;
23046;SDS011;11691;51.462;6.902;2023-05-16T13:36:49;3.40;;;0.90;;
23046;SDS011;11691;51.462;6.902;2023-05-16T13:39:15;2.92;;;0.70;;
23046;SDS011;11691;51.462;6.902;2023-05-16T13:41:42;2.80;;;0.85;;
23046;SDS011;11691;51.462;6.902;2023-05-16T13:44:08;3.03;;;0.88;;
23046;SDS011;11691;51.462;6.902;2023-05-16T13:46:34;5.25;;;1.05;;
23046;SDS011;11691;51.462;6.902;2023-05-16T13:49:00;3.60;;;0.60;;
23046;SDS011;11691;51.462;6.902;2023-05-16T13:51:26;2.63;;;0.93;;
23046;SDS011;11691;51.462;6.902;2023-05-16T13:53:52;5.90;;;0.73;;
23046;SDS011;11691;51.462;6.902;2023-05-16T13:56:18;4.88;;;1.05;;
23046;SDS011;11691;51.462;6.902;2023-05-16T13:58:44;2.80;;;1.05;;
23046;SDS011;11691;51.462;6.902;2023-05-16T14:01:10;3.67;;;0.70;;
23046;SDS011;11691;51.462;6.902;2023-05-16T14:03:37;3.08;;;0.85;;
23046;SDS011;11691;51.462;6.902;2023-05-16T14:06:03;3.25;;;1.10;;
23046;SDS011;11691;51.462;6.902;2023-05-16T14:08:29;3.30;;;0.80;;
23046;SDS011;11691;51.462;6.902;2023-05-16T14:10:55;3.30;;;0.90;;
23046;SDS011;11691;51.462;6.902;2023-05-16T14:13:21;2.72;;;1.02;;
23046;SDS011;11691;51.462;6.902;2023-05-16T14:15:47;4.25;;;1.02;;
23046;SDS011;11691;51.462;6.902;2023-05-16T14:18:13;4.57;;;0.90;;
23046;SDS011;11691;51.462;6.902;2023-05-16T14:20:39;5.00;;;1.20;;
23046;SDS011;11691;51.462;6.902;2023-05-16T14:23:05;5.93;;;1.30;;
23046;SDS011;11691;51.462;6.902;2023-05-16T14:25:31;2.35;;;0.80;;
23046;SDS011;11691;51.462;6.902;2023-05-16T14:27:57;4.00;;;0.95;;
23046;SDS011;11691;51.462;6.902;2023-05-16T14:30:23;4.57;;;1.05;;
23046;SDS011;11691;51.462;6.902;2023-05-16T14:32:50;2.80;;;1.10;;
23046;SDS011;11691;51.462;6.902;2023-05-16T14:35:16;4.53;;;0.88;;
23046;SDS011;11691;51.462;6.902;2023-05-16T14:37:42;4.05;;;1.02;;
23046;SDS011;11691;51.462;6.902;2023-05-16T14:40:08;5.78;;;1.65;;
23046;SDS011;11691;51.462;6.902;2023-05-16T14:42:34;3.95;;;0.95;;
23046;SDS011;11691;51.462;6.902;2023-05-16T14:45:00;3.67;;;1.20;;
23046;SDS011;11691;51.462;6.902;2023-05-16T14:47:26;2.75;;;0.90;;
23046;SDS011;11691;51.462;6.902;2023-05-16T14:49:52;2.63;;;0.95;;
23046;SDS011;11691;51.462;6.902;2023-05-16T14:52:20;3.42;;;1.30;;
23046;SDS011;11691;51.462;6.902;2023-05-16T14:54:46;5.03;;;1.30;;
23046;SDS011;11691;51.462;6.902;2023-05-16T14:57:12;5.50;;;1.27;;
23046;SDS011;11691;51.462;6.902;2023-05-16T14:59:38;3.08;;;1.00;;
23046;SDS011;11691;51.462;6.902;2023-05-16T15:02:04;3.42;;;1.15;;
23046;SDS011;11691;51.462;6.902;2023-05-16T15:04:31;3.40;;;1.30;;